Etusivu
METAR-TAF:

METAR-TAF

Lentoasemat :

Gulf Shores, Alabama, Yhdysvallat

Leveyspiiri: 30-17-23N, Pituuspiiri: 087-40-18W, korkeus merenpinnasta: 5 m

Tämänhetkinen sää

Tämä raportti tehtiin 21 minuuttia sitten, kello 01.35 UTC
Tuuli 3 kn kaakosta
Lämpötila 26°C
Kosteus 79%
Ilmanpaine 1015 hPa
Näkyvyys: 16.1 km
Hajanaisia pilviä 2200 ft:n korkeudessa

METAR: KJKA 060135Z AUTO 14003KT 10SM SCT022 26/22 A2997 RMK AO2 T02550223

Aika: 20:56 (01:56 UTC)


TAF: puuttuu

Säähavainnot ja -ennusteet yli 4000 lentoasemalta (METAR- ja TAF-raportit).

Käytössä olevat sääasemat on merkitty karttaan keltaisilla ja punaisilla pisteillä.

Aseta hiiri pisteen päälle nähdäksesi sääaseman nimen.

Klikkaa sitten nähdäksesi säähavainnot ja -ennusteet.

Kartan vaihtaminen: klikkaa mustalla rastilla varustettuja vihreitä pisteitä, niin voit zoomata sisään; viivalla varustettua vihreää pistettä, niin voit zoomata ulos tai vihreitä nuolia, niin pääset viereisille kartoille.


METAR-TAF: